Time;durP1;ratioP1;P1;durP2;ratioP2;P2;SDS_P1;SDS_P2;PMS_P1;PMS_P2;Temp;Humidity;BMP_temperature;BMP_pressure;BME280_temperature;BME280_humidity;BME280_pressure;Samples;Min_cycle;Max_cycle;Signal;HPM_P1;HPM_P2
2022/08/07 00:01:11;;;;;;;;;;;;;;;24.59;72.73;99717.13;1742577;81;21922;-62
2022/08/07 00:03:38;;;;;;;;;;;;;;;24.55;73.12;99711.72;1736781;81;20571;-61
2022/08/07 00:06:04;;;;;;;;;;;;;;;24.51;72.74;99716.19;1725109;81;20513;-62
2022/08/07 00:08:32;;;;;;;;;;;;;;;24.54;72.68;99711.86;1722443;81;20428;-62
2022/08/07 00:10:58;;;;;;;;;;;;;;;24.49;72.90;99706.94;1732660;81;20442;-61
2022/08/07 00:13:25;;;;;;;;;;;;;;;24.45;72.96;99713.11;1741914;81;21803;-62
2022/08/07 00:15:51;;;;;;;;;;;;;;;24.41;73.05;99718.45;1734534;81;20408;-62
2022/08/07 00:18:19;;;;;;;;;;;;;;;24.36;73.33;99715.38;1736818;81;20176;-62
2022/08/07 00:20:48;;;;;;;;;;;;;;;24.32;73.76;99722.05;1735647;82;20432;-64
2022/08/07 00:23:14;;;;;;;;;;;;;;;24.33;73.78;99720.20;1737533;81;20427;-62
2022/08/07 00:25:41;;;;;;;;;;;;;;;24.28;73.59;99716.64;1726293;80;21804;-62
2022/08/07 00:28:07;;;;;;;;;;;;;;;24.24;74.04;99724.63;1711228;82;20182;-62
2022/08/07 00:30:33;;;;;;;;;;;;;;;24.27;73.91;99725.17;1723920;82;20470;-62
2022/08/07 00:33:00;;;;;;;;;;;;;;;24.22;74.21;99732.00;1726108;82;20411;-62
2022/08/07 00:35:27;;;;;;;;;;;;;;;24.24;73.91;99725.50;1727364;82;20440;-63
2022/08/07 00:37:53;;;;;;;;;;;;;;;24.22;73.89;99727.97;1729849;82;21938;-62
2022/08/07 00:40:20;;;;;;;;;;;;;;;24.30;73.89;99724.05;1725890;82;20390;-62
2022/08/07 00:42:47;;;;;;;;;;;;;;;24.36;73.39;99720.74;1730295;82;20435;-62
2022/08/07 00:45:14;;;;;;;;;;;;;;;24.36;73.57;99726.12;1723266;81;20427;-66
2022/08/07 00:47:40;;;;;;;;;;;;;;;24.36;73.62;99723.43;1731941;81;20484;-63
2022/08/07 00:50:08;;;;;;;;;;;;;;;24.31;73.39;99724.88;1730955;81;21759;-62
2022/08/07 00:52:35;;;;;;;;;;;;;;;24.33;74.03;99730.44;1721487;82;20418;-62
2022/08/07 00:55:02;;;;;;;;;;;;;;;24.34;73.85;99721.40;1721296;82;20420;-62
2022/08/07 00:57:29;;;;;;;;;;;;;;;24.35;74.10;99724.92;1734478;82;20419;-62
2022/08/07 00:59:55;;;;;;;;;;;;;;;24.37;73.59;99727.79;1729190;82;20172;-63
2022/08/07 01:02:22;;;;;;;;;;;;;;;24.38;73.84;99726.80;1720307;82;21789;-66
2022/08/07 01:04:49;;;;;;;;;;;;;;;24.38;73.53;99724.13;1729251;81;20494;-63
2022/08/07 01:07:15;;;;;;;;;;;;;;;24.38;73.08;99728.15;1721058;82;20463;-62
2022/08/07 01:09:42;;;;;;;;;;;;;;;24.36;73.01;99731.48;1720367;82;20408;-62
2022/08/07 01:12:10;;;;;;;;;;;;;;;24.29;73.07;99730.41;1733023;82;20451;-62
2022/08/07 01:14:37;;;;;;;;;;;;;;;24.26;73.50;99737.41;1721189;82;21857;-62
2022/08/07 01:17:03;;;;;;;;;;;;;;;24.25;73.56;99735.73;1717780;81;20324;-64
2022/08/07 01:19:30;;;;;;;;;;;;;;;24.22;74.03;99742.27;1722286;82;20452;-64
2022/08/07 01:21:57;;;;;;;;;;;;;;;24.25;73.74;99732.55;1715078;82;20517;-64
2022/08/07 01:24:25;;;;;;;;;;;;;;;24.24;74.17;99740.75;1729841;81;20414;-66
2022/08/07 01:26:52;;;;;;;;;;;;;;;24.24;74.47;99742.09;1736241;82;21838;-64
2022/08/07 01:29:22;;;;;;;;;;;;;;;24.25;74.72;99735.73;1736848;82;20425;-64
2022/08/07 01:31:50;;;;;;;;;;;;;;;24.26;74.95;99738.28;1729593;82;20441;-64
2022/08/07 01:34:16;;;;;;;;;;;;;;;24.26;74.49;99738.28;1722168;82;20494;-64
2022/08/07 01:36:43;;;;;;;;;;;;;;;24.27;74.32;99735.92;1735415;82;20174;-64
2022/08/07 01:39:11;;;;;;;;;;;;;;;24.24;74.13;99740.27;1730414;81;21894;-64
2022/08/07 01:41:42;;;;;;;;;;;;;;;24.24;73.94;99738.06;1727006;82;20461;-63
2022/08/07 01:44:08;;;;;;;;;;;;;;;24.22;74.07;99738.72;1734989;81;20428;-64
2022/08/07 01:46:35;;;;;;;;;;;;;;;24.17;74.07;99735.66;1731468;82;20428;-64
2022/08/07 01:49:02;;;;;;;;;;;;;;;24.12;74.52;99744.16;1736639;82;20411;-64
2022/08/07 01:51:28;;;;;;;;;;;;;;;24.05;74.75;99739.90;1735066;82;21748;-64
2022/08/07 01:53:57;;;;;;;;;;;;;;;24.06;74.91;99742.91;1733567;81;20147;-64
2022/08/07 01:56:27;;;;;;;;;;;;;;;24.06;74.90;99743.42;1730656;81;20437;-63
2022/08/07 01:58:59;;;;;;;;;;;;;;;24.04;75.12;99742.73;1730704;82;20443;-63
2022/08/07 02:01:27;;;;;;;;;;;;;;;23.96;75.67;99739.92;1735058;81;20424;-64
2022/08/07 02:04:22;;;;;;;;;;;;;;;23.89;75.47;99740.53;1743452;81;21842;-64
2022/08/07 02:06:50;;;;;;;;;;;;;;;23.85;75.88;99740.99;1728332;82;20518;-63
2022/08/07 02:09:17;;;;;;;;;;;;;;;23.82;76.11;99742.63;1725947;81;20151;-62
2022/08/07 02:11:44;;;;;;;;;;;;;;;23.77;76.34;99743.52;1736547;81;20475;-62
2022/08/07 02:14:11;;;;;;;;;;;;;;;23.70;76.44;99747.31;1725525;82;20464;-63
2022/08/07 02:16:38;;;;;;;;;;;;;;;23.64;76.76;99751.91;1733231;81;21755;-62
2022/08/07 02:19:06;;;;;;;;;;;;;;;23.63;76.76;99748.89;1734799;82;20475;-62
2022/08/07 02:21:36;;;;;;;;;;;;;;;23.61;77.15;99749.53;1732581;82;20428;-62
2022/08/07 02:24:04;;;;;;;;;;;;;;;23.65;76.99;99750.42;1712698;82;20412;-62
2022/08/07 02:26:31;;;;;;;;;;;;;;;23.64;77.08;99754.11;1729666;82;20431;-63
2022/08/07 02:28:58;;;;;;;;;;;;;;;23.68;77.34;99756.01;1734194;82;21917;-62
2022/08/07 02:31:24;;;;;;;;;;;;;;;23.74;76.92;99747.87;1729601;82;20206;-62
2022/08/07 02:33:51;;;;;;;;;;;;;;;23.64;77.13;99752.77;1737210;80;20139;-62
2022/08/07 02:36:17;;;;;;;;;;;;;;;23.58;77.20;99751.99;1734216;81;20419;-63
2022/08/07 02:38:44;;;;;;;;;;;;;;;23.55;77.27;99747.45;1736587;82;20490;-62
2022/08/07 02:41:11;;;;;;;;;;;;;;;23.56;77.16;99748.62;1728382;81;21879;-62
2022/08/07 02:43:38;;;;;;;;;;;;;;;23.55;77.60;99751.47;1725670;82;20452;-62
2022/08/07 02:46:04;;;;;;;;;;;;;;;23.53;77.43;99751.61;1726848;82;20455;-62
2022/08/07 02:48:32;;;;;;;;;;;;;;;23.52;77.16;99752.08;1730022;80;20519;-62
2022/08/07 02:51:02;;;;;;;;;;;;;;;23.53;77.19;99755.64;1736605;81;20155;-61
2022/08/07 02:53:31;;;;;;;;;;;;;;;23.48;76.87;99748.01;1735310;82;21923;-62
2022/08/07 02:55:58;;;;;;;;;;;;;;;23.44;77.20;99752.48;1729527;82;20366;-62
2022/08/07 02:58:26;;;;;;;;;;;;;;;23.38;77.63;99757.10;1739871;82;20427;-62
2022/08/07 03:00:55;;;;;;;;;;;;;;;23.42;78.03;99759.33;1728685;81;20432;-62
2022/08/07 03:03:22;;;;;;;;;;;;;;;23.45;77.95;99758.19;1729098;81;20159;-62
2022/08/07 03:05:53;;;;;;;;;;;;;;;23.48;77.78;99753.88;1734686;80;21728;-62
2022/08/07 03:08:20;;;;;;;;;;;;;;;23.50;77.82;99755.92;1709509;82;20683;-62
2022/08/07 03:10:47;;;;;;;;;;;;;;;23.50;78.08;99763.47;1723930;81;20440;-63
2022/08/07 03:13:15;;;;;;;;;;;;;;;23.53;78.25;99763.69;1731705;82;20411;-62
2022/08/07 03:15:42;;;;;;;;;;;;;;;23.60;78.46;99767.95;1724032;82;20432;-62
2022/08/07 03:18:10;;;;;;;;;;;;;;;23.63;78.79;99767.67;1736014;82;21730;-62
2022/08/07 03:20:38;;;;;;;;;;;;;;;23.62;79.04;99772.20;1725015;81;20162;-62
2022/08/07 03:23:04;;;;;;;;;;;;;;;23.62;79.57;99771.34;1731388;82;20438;-63
2022/08/07 03:25:31;;;;;;;;;;;;;;;23.63;79.49;99767.67;1732360;82;20455;-63
2022/08/07 03:27:58;;;;;;;;;;;;;;;23.65;79.58;99769.71;1731712;82;20527;-62
2022/08/07 03:30:25;;;;;;;;;;;;;;;23.79;79.45;99764.38;1725911;82;21746;-63
2022/08/07 03:32:53;;;;;;;;;;;;;;;23.89;79.02;99771.41;1717585;81;20493;-63
2022/08/07 03:35:23;;;;;;;;;;;;;;;23.93;78.88;99767.93;1726796;82;20139;-63
2022/08/07 03:37:58;;;;;;;;;;;;;;;23.99;78.77;99765.15;1730075;82;20429;-62
2022/08/07 03:40:26;;;;;;;;;;;;;;;24.05;78.95;99772.13;1727724;81;20430;-63
2022/08/07 03:42:53;;;;;;;;;;;;;;;24.10;79.11;99774.34;1717308;81;21774;-64
2022/08/07 03:45:20;;;;;;;;;;;;;;;24.18;78.93;99777.63;1717658;82;20411;-65
2022/08/07 03:47:47;;;;;;;;;;;;;;;24.28;78.74;99781.12;1730741;82;20419;-64
2022/08/07 03:50:13;;;;;;;;;;;;;;;24.34;78.40;99773.79;1714199;82;20696;-68
2022/08/07 03:52:40;;;;;;;;;;;;;;;24.41;78.08;99778.05;1718129;82;20447;-65
2022/08/07 03:55:08;;;;;;;;;;;;;;;24.44;78.21;99781.78;1717662;82;21863;-64
2022/08/07 03:57:37;;;;;;;;;;;;;;;24.50;77.91;99777.13;1731680;80;20283;-64
2022/08/07 04:00:04;;;;;;;;;;;;;;;24.56;77.77;99768.99;1722909;82;20420;-63
2022/08/07 04:02:33;;;;;;;;;;;;;;;24.65;77.39;99768.91;1726031;82;20443;-65
2022/08/07 04:04:59;;;;;;;;;;;;;;;24.74;77.20;99766.32;1726782;82;20416;-65
2022/08/07 04:07:26;;;;;;;;;;;;;;;24.83;76.91;99764.89;1718236;82;21754;-64
2022/08/07 04:09:54;;;;;;;;;;;;;;;24.93;76.45;99763.97;1731909;81;20174;-65
2022/08/07 04:12:22;;;;;;;;;;;;;;;24.97;76.32;99770.72;1728440;81;20420;-65
2022/08/07 04:14:49;;;;;;;;;;;;;;;25.05;76.16;99764.05;1715673;82;20416;-65
2022/08/07 04:17:17;;;;;;;;;;;;;;;25.10;75.91;99767.63;1715290;81;20460;-64
2022/08/07 04:19:43;;;;;;;;;;;;;;;25.20;75.54;99765.20;1720708;82;21985;-63
2022/08/07 04:22:10;;;;;;;;;;;;;;;25.23;75.26;99757.33;1721912;81;20432;-65
2022/08/07 04:24:38;;;;;;;;;;;;;;;25.29;75.38;99763.92;1714703;82;20433;-64
2022/08/07 04:27:05;;;;;;;;;;;;;;;25.34;75.20;99767.00;1721581;82;20137;-64
2022/08/07 04:29:34;;;;;;;;;;;;;;;25.36;74.98;99764.99;1724024;81;20144;-65
2022/08/07 04:32:01;;;;;;;;;;;;;;;25.50;74.72;99768.42;1719054;82;21874;-65
2022/08/07 04:34:28;;;;;;;;;;;;;;;25.59;74.55;99767.98;1720543;82;20428;-65
2022/08/07 04:36:55;;;;;;;;;;;;;;;25.63;74.37;99767.48;1715302;82;20450;-64
2022/08/07 04:39:22;;;;;;;;;;;;;;;25.67;74.49;99769.88;1729200;82;20428;-64
2022/08/07 04:41:48;;;;;;;;;;;;;;;25.79;73.80;99769.44;1728533;82;20509;-65
2022/08/07 04:44:15;;;;;;;;;;;;;;;25.87;73.45;99765.10;1715622;82;21813;-64
2022/08/07 04:46:46;;;;;;;;;;;;;;;25.91;73.34;99765.95;1721731;82;20461;-65
2022/08/07 04:49:50;;;;;;;;;;;;;;;25.94;73.75;99769.70;1722034;82;20440;-65
2022/08/07 04:52:46;;;;;;;;;;;;;;;25.97;73.89;99768.02;1718181;82;20452;-65
2022/08/07 04:55:31;;;;;;;;;;;;;;;25.99;74.48;99772.77;1722524;82;20439;-66
2022/08/07 04:58:35;;;;;;;;;;;;;;;26.06;74.57;99776.16;1731229;81;20504;-65
2022/08/07 05:01:08;;;;;;;;;;;;;;;26.12;74.24;99774.98;1719957;82;20461;-65
2022/08/07 05:03:56;;;;;;;;;;;;;;;26.23;74.06;99779.23;1663885;85;20222;-65
2022/08/07 05:06:39;;;;;;;;;;;;;;;26.28;74.15;99788.20;1663070;84;20435;-65
2022/08/07 05:09:35;;;;;;;;;;;;;;;26.37;73.62;99788.05;1662560;85;20561;-66
2022/08/07 05:12:04;;;;;;;;;;;;;;;26.45;72.55;99786.36;1654705;84;20907;-65
2022/08/07 05:14:37;;;;;;;;;;;;;;;26.56;72.42;99790.95;1660967;84;20174;-64
2022/08/07 05:17:04;;;;;;;;;;;;;;;26.68;71.68;99787.97;1666307;85;20436;-64
2022/08/07 05:19:37;;;;;;;;;;;;;;;26.80;71.64;99787.97;1676838;83;20558;-64
2022/08/07 05:22:03;;;;;;;;;;;;;;;26.89;71.03;99784.27;1677430;84;20464;-65
2022/08/07 05:24:31;;;;;;;;;;;;;;;27.03;71.16;99786.83;1681963;83;22146;-65
2022/08/07 05:26:58;;;;;;;;;;;;;;;27.06;71.14;99785.12;1677798;83;20535;-65
2022/08/07 05:29:24;;;;;;;;;;;;;;;27.19;69.83;99784.61;1659697;84;20705;-65
2022/08/07 05:31:51;;;;;;;;;;;;;;;27.27;69.73;99782.44;1657345;85;20178;-67
2022/08/07 05:34:18;;;;;;;;;;;;;;;27.43;68.92;99776.20;1656434;84;20437;-65
2022/08/07 05:36:47;;;;;;;;;;;;;;;27.56;68.15;99780.03;1644272;85;22128;-65
2022/08/07 05:39:22;;;;;;;;;;;;;;;27.63;68.17;99780.17;1654414;83;20402;-65
2022/08/07 05:41:49;;;;;;;;;;;;;;;27.69;67.92;99775.45;1645653;85;20431;-65
2022/08/07 05:44:18;;;;;;;;;;;;;;;27.78;67.35;99778.95;1645011;84;20429;-66
2022/08/07 05:46:47;;;;;;;;;;;;;;;27.87;66.00;99771.16;1647950;84;20273;-68
2022/08/07 05:49:14;;;;;;;;;;;;;;;27.95;65.64;99760.36;1670549;83;21926;-66
2022/08/07 05:51:43;;;;;;;;;;;;;;;28.03;65.59;99768.08;1674487;83;20186;-63
2022/08/07 05:54:10;;;;;;;;;;;;;;;28.08;65.77;99766.53;1673178;84;20433;-63
2022/08/07 05:56:38;;;;;;;;;;;;;;;28.10;65.77;99763.66;1668632;84;20464;-63
2022/08/07 05:59:08;;;;;;;;;;;;;;;28.17;65.73;99768.69;1662750;84;20463;-62
2022/08/07 06:01:34;;;;;;;;;;;;;;;28.24;67.21;99770.19;1667190;85;21806;-63
2022/08/07 06:04:00;;;;;;;;;;;;;;;28.29;65.26;99772.70;1669541;84;20427;-62
2022/08/07 06:06:27;;;;;;;;;;;;;;;28.33;65.69;99774.02;1669985;84;20424;-64
2022/08/07 06:08:54;;;;;;;;;;;;;;;28.41;65.06;99775.00;1665794;83;20526;-64
2022/08/07 06:11:21;;;;;;;;;;;;;;;28.51;64.93;99768.31;1673910;84;20176;-65
2022/08/07 06:13:48;;;;;;;;;;;;;;;28.63;63.71;99770.64;1661940;84;21828;-63
2022/08/07 06:16:15;;;;;;;;;;;;;;;28.74;63.99;99771.58;1665216;83;20437;-64
2022/08/07 06:18:42;;;;;;;;;;;;;;;28.86;63.25;99770.66;1666501;83;20436;-65
2022/08/07 06:21:09;;;;;;;;;;;;;;;28.97;62.55;99763.47;1670988;84;20385;-66
2022/08/07 06:23:37;;;;;;;;;;;;;;;29.11;61.80;99762.64;1672580;84;20464;-65
2022/08/07 06:26:03;;;;;;;;;;;;;;;29.19;61.36;99763.11;1668207;84;21815;-65
2022/08/07 06:28:30;;;;;;;;;;;;;;;29.34;60.96;99759.08;1673299;83;20525;-66
2022/08/07 06:30:58;;;;;;;;;;;;;;;29.44;60.63;99761.02;1689806;83;20437;-65
2022/08/07 06:33:25;;;;;;;;;;;;;;;29.51;60.99;99763.28;1697124;83;20520;-66
2022/08/07 06:35:51;;;;;;;;;;;;;;;29.58;60.02;99760.69;1691810;83;20447;-66
2022/08/07 06:38:18;;;;;;;;;;;;;;;29.70;59.94;99763.77;1697181;83;22130;-67
2022/08/07 06:40:52;;;;;;;;;;;;;;;29.76;59.81;99761.72;1698266;83;20414;-64
2022/08/07 06:43:20;;;;;;;;;;;;;;;29.78;58.15;99749.31;1703498;83;20453;-64
2022/08/07 06:45:54;;;;;;;;;;;;;;;29.77;58.96;99748.48;1694304;83;20539;-65
2022/08/07 06:48:21;;;;;;;;;;;;;;;29.82;58.00;99751.47;1691642;83;20430;-66
2022/08/07 06:50:48;;;;;;;;;;;;;;;29.87;57.05;99744.13;1644891;85;21878;-65
2022/08/07 06:53:16;;;;;;;;;;;;;;;29.88;58.47;99744.45;1688373;83;20439;-66
2022/08/07 06:55:43;;;;;;;;;;;;;;;29.93;57.17;99742.00;1668413;84;20440;-65
2022/08/07 06:58:10;;;;;;;;;;;;;;;29.99;56.70;99741.76;1668935;85;20314;-64
2022/08/07 07:00:40;;;;;;;;;;;;;;;30.05;56.67;99741.02;1664850;85;20472;-63
2022/08/07 07:03:07;;;;;;;;;;;;;;;30.11;55.45;99737.54;1658009;85;21808;-64
2022/08/07 07:05:34;;;;;;;;;;;;;;;30.13;55.88;99736.83;1668960;84;20437;-63
2022/08/07 07:08:00;;;;;;;;;;;;;;;30.23;56.71;99746.88;1665566;85;20425;-63
2022/08/07 07:10:28;;;;;;;;;;;;;;;30.36;56.20;99744.00;1667327;85;20435;-63
2022/08/07 07:13:07;;;;;;;;;;;;;;;30.38;55.74;99740.58;1657600;84;20428;-64
2022/08/07 07:15:35;;;;;;;;;;;;;;;30.42;55.12;99740.52;1660514;84;21764;-64
2022/08/07 07:18:14;;;;;;;;;;;;;;;30.46;54.90;99744.02;1671095;83;20399;-64
2022/08/07 07:20:53;;;;;;;;;;;;;;;30.51;54.40;99746.14;1666515;84;20441;-64
2022/08/07 07:23:20;;;;;;;;;;;;;;;30.56;54.86;99747.77;1662008;85;20436;-63
2022/08/07 07:25:46;;;;;;;;;;;;;;;30.58;53.65;99744.34;1655329;84;20451;-63
2022/08/07 07:28:24;;;;;;;;;;;;;;;30.63;53.54;99737.83;1670170;85;22018;-63
2022/08/07 07:30:54;;;;;;;;;;;;;;;30.71;54.46;99744.16;1656303;85;20479;-63
2022/08/07 07:33:20;;;;;;;;;;;;;;;30.87;54.78;99754.73;1652334;85;20156;-64
2022/08/07 07:35:48;;;;;;;;;;;;;;;30.95;54.00;99749.22;1664131;85;20176;-63
2022/08/07 07:38:14;;;;;;;;;;;;;;;31.01;53.50;99753.02;1666397;85;20465;-61
2022/08/07 07:43:18;;;;;;;6.97;6.42;;;;;;;30.34;54.73;99759.11;1778900;78;23153;-61
2022/08/07 07:45:45;;;;;;;7.83;6.15;;;;;;;30.70;52.92;99762.82;1739023;80;21415;-63
2022/08/07 07:48:16;;;;;;;7.78;5.90;;;;;;;30.78;51.97;99754.54;1684268;83;21999;-63
2022/08/07 07:50:43;;;;;;;7.33;5.58;;;;;;;30.87;51.36;99752.02;1706255;81;21572;-64
2022/08/07 07:53:09;;;;;;;8.33;6.67;;;;;;;31.00;51.57;99748.09;1702652;83;21595;-65
2022/08/07 07:55:36;;;;;;;7.97;6.30;;;;;;;31.11;51.46;99752.15;1695681;82;21448;-63
2022/08/07 07:58:03;;;;;;;7.63;5.97;;;;;;;31.26;50.11;99740.36;1697631;83;21483;-63
2022/08/07 08:00:30;;;;;;;9.15;6.70;;;;;;;31.38;49.70;99743.69;1699666;83;22207;-63
2022/08/07 08:03:02;;;;;;;6.70;6.03;;;;;;;31.51;49.44;99742.11;1697112;81;20971;-63
2022/08/07 08:05:29;;;;;;;7.95;5.85;;;;;;;31.61;48.89;99746.69;1696229;83;21635;-63
2022/08/07 08:07:55;;;;;;;10.13;6.00;;;;;;;31.74;47.92;99744.03;1698823;83;21519;-62
2022/08/07 08:10:22;;;;;;;5.72;5.30;;;;;;;31.79;48.10;99740.17;1685390;83;21660;-63
2022/08/07 08:12:49;;;;;;;6.97;5.87;;;;;;;31.86;47.53;99738.03;1690908;82;21828;-62
2022/08/07 08:15:16;;;;;;;11.55;5.55;;;;;;;31.97;47.08;99732.02;1696472;83;21444;-63
2022/08/07 08:17:43;;;;;;;6.22;5.58;;;;;;;32.03;46.73;99733.11;1704173;83;21553;-62
2022/08/07 08:20:10;;;;;;;6.50;5.95;;;;;;;32.13;46.97;99731.66;1697534;83;21567;-63
2022/08/07 08:28:13;;;;;;;6.42;5.33;;;;;;;32.45;45.18;99727.88;1699707;83;21551;-64
2022/08/07 08:30:40;;;;;;;6.92;5.83;;;;;;;32.55;46.10;99728.33;1705983;82;21554;-63
2022/08/07 08:33:07;;;;;;;6.22;4.78;;;;;;;32.65;45.48;99724.40;1676849;83;20976;-64
2022/08/07 08:35:34;;;;;;;7.70;4.85;;;;;;;32.72;43.26;99713.83;1705907;82;21029;-65
2022/08/07 08:38:02;;;;;;;8.60;5.40;;;;;;;32.78;43.12;99714.88;1695465;83;21870;-63
2022/08/07 08:40:39;;;;;;;9.00;5.12;;;;;;;32.84;43.10;99713.20;1699581;82;21516;-64
2022/08/07 08:43:34;;;;;;;5.00;4.60;;;;;;;32.91;43.62;99716.23;1684276;82;21586;-64
2022/08/07 08:46:24;;;;;;;5.58;4.75;;;;;;;32.96;42.63;99709.64;1728876;80;21645;-66
2022/08/07 08:49:21;;;;;;;4.92;4.47;;;;;;;32.98;42.44;99705.33;1728943;80;21625;-62
2022/08/07 08:52:02;;;;;;;5.80;3.95;;;;;;;32.90;42.53;99706.91;1733653;80;25598;-65
2022/08/07 08:54:46;;;;;;;7.00;4.60;;;;;;;32.90;41.51;99709.10;1727184;80;21128;-64
2022/08/07 08:57:20;;;;;;;5.35;4.60;;;;;;;32.92;41.32;99707.00;1722139;81;21563;-64
2022/08/07 09:00:05;;;;;;;6.55;4.10;;;;;;;32.95;40.72;99709.32;1693490;82;21520;-64
2022/08/07 09:02:52;;;;;;;4.97;4.00;;;;;;;32.87;40.48;99694.56;1726391;79;21523;-63
2022/08/07 09:05:49;;;;;;;6.47;4.33;;;;;;;32.88;41.61;99691.31;1686111;82;21597;-63
2022/08/07 09:08:54;;;;;;;4.83;4.53;;;;;;;32.79;42.49;99698.84;1726513;80;21608;-64
2022/08/07 09:11:40;;;;;;;5.92;4.00;;;;;;;32.67;42.16;99711.42;1738837;80;20967;-63
2022/08/07 09:14:14;;;;;;;6.37;4.37;;;;;;;32.51;43.04;99715.33;1738297;80;21554;-64
2022/08/07 09:17:17;;;;;;;4.62;4.33;;;;;;;32.40;43.69;99711.36;1729067;80;21499;-63
2022/08/07 09:19:56;;;;;;;5.22;4.72;;;;;;;32.27;43.70;99699.92;1733763;80;21896;-63
2022/08/07 09:22:54;;;;;;;5.10;4.70;;;;;;;32.06;44.67;99700.92;1723652;80;21498;-64
2022/08/07 09:25:28;;;;;;;5.15;4.65;;;;;;;31.93;45.72;99698.09;1745337;80;21531;-63
2022/08/07 09:28:02;;;;;;;5.90;5.40;;;;;;;31.81;46.68;99697.84;1732121;80;21057;-62
2022/08/07 09:30:38;;;;;;;5.78;5.37;;;;;;;31.72;46.63;99702.64;1672089;84;21164;-62
2022/08/07 09:33:35;;;;;;;8.58;5.58;;;;;;;31.49;47.07;99716.50;1687770;83;21472;-64
2022/08/07 09:36:11;;;;;;;7.05;5.60;;;;;;;31.17;48.12;99730.16;1682733;82;21623;-63
2022/08/07 09:38:54;;;;;;;6.17;5.58;;;;;;;30.93;49.39;99744.50;1691259;82;21412;-63
2022/08/07 09:41:39;;;;;;;5.72;5.10;;;;;;;30.70;50.41;99739.75;1675569;84;21589;-63
2022/08/07 09:44:42;;;;;;;9.80;5.78;;;;;;;30.51;51.33;99750.21;1732774;80;21496;-64
2022/08/07 09:47:24;;;;;;;5.70;5.17;;;;;;;30.34;51.87;99738.77;1693778;82;21800;-64
2022/08/07 09:49:56;;;;;;;7.37;5.60;;;;;;;30.25;53.00;99738.03;1729324;80;21521;-64
2022/08/07 09:52:43;;;;;;;7.65;5.85;;;;;;;30.19;54.09;99746.91;1681990;82;21510;-63
2022/08/07 09:55:47;;;;;;;6.12;5.50;;;;;;;30.14;54.63;99752.08;1720729;81;21444;-63
2022/08/07 09:58:49;;;;;;;7.05;5.65;;;;;;;30.08;54.43;99747.40;1729997;80;20992;-64
2022/08/07 10:01:56;;;;;;;6.87;5.35;;;;;;;30.02;54.55;99741.39;1721270;81;21726;-63
2022/08/07 10:04:58;;;;;;;7.60;5.40;;;;;;;29.97;55.00;99743.82;1690609;82;21538;-63
2022/08/07 10:07:54;;;;;;;6.33;5.72;;;;;;;29.87;54.64;99727.86;1743659;80;21543;-63
2022/08/07 10:10:38;;;;;;;5.80;5.00;;;;;;;29.84;53.95;99716.06;1727894;80;21551;-63
2022/08/07 10:13:45;;;;;;;8.83;5.53;;;;;;;29.91;53.60;99706.12;1724345;80;21042;-62
2022/08/07 10:16:32;;;;;;;7.72;5.50;;;;;;;29.89;53.65;99714.95;1726445;81;21998;-63
2022/08/07 10:19:19;;;;;;;7.03;5.25;;;;;;;29.87;53.03;99725.98;1722709;80;21567;-62
2022/08/07 10:22:07;;;;;;;5.87;5.37;;;;;;;29.77;53.42;99736.28;1675054;81;21483;-63
2022/08/07 10:25:16;;;;;;;5.87;5.15;;;;;;;29.79;53.96;99747.77;1689294;82;21631;-62
2022/08/07 10:28:06;;;;;;;10.00;5.33;;;;;;;29.78;53.55;99756.95;1691739;82;21430;-62
2022/08/07 10:30:55;;;;;;;9.85;5.05;;;;;;;29.75;54.59;99777.63;1733535;80;21796;-62
2022/08/07 10:33:49;;;;;;;9.80;5.10;;;;;;;29.70;56.52;99786.80;1661883;82;21609;-62
2022/08/07 10:36:55;;;;;;;8.55;5.42;;;;;;;29.64;58.10;99799.73;1686773;83;20971;-63
2022/08/07 10:39:59;;;;;;;8.80;5.42;;;;;;;29.60;58.65;99802.50;1696741;83;21553;-63
2022/08/07 10:42:43;;;;;;;7.83;5.65;;;;;;;29.42;58.81;99794.70;1689676;83;21575;-62
2022/08/07 10:45:27;;;;;;;6.05;5.62;;;;;;;29.31;59.47;99785.19;1681729;83;21890;-62
2022/08/07 10:48:02;;;;;;;9.70;6.50;;;;;;;29.23;57.84;99760.88;1690016;82;21485;-62
2022/08/07 10:50:41;;;;;;;6.55;6.03;;;;;;;29.08;58.74;99758.11;1736355;80;21574;-61
2022/08/07 10:53:28;;;;;;;9.00;6.05;;;;;;;28.98;58.66;99752.95;1717250;80;21526;-62
2022/08/07 10:56:03;;;;;;;10.03;5.60;;;;;;;29.01;58.93;99755.31;1739020;80;21412;-62
2022/08/07 10:58:51;;;;;;;6.37;5.72;;;;;;;28.95;60.64;99757.37;1739003;80;21785;-61
2022/08/07 11:01:53;;;;;;;6.42;5.83;;;;;;;28.87;60.69;99755.58;1738391;80;21565;-61
2022/08/07 11:05:10;;;;;;;7.33;6.08;;;;;;;28.77;61.58;99756.86;1692157;82;21550;-63
2022/08/07 11:08:12;;;;;;;6.78;6.08;;;;;;;28.65;61.13;99749.17;1733619;80;21527;-61
2022/08/07 11:10:51;;;;;;;6.30;5.70;;;;;;;28.52;61.06;99742.17;1734670;80;21645;-61
2022/08/07 11:13:24;;;;;;;8.80;5.92;;;;;;;28.49;61.42;99747.89;1740308;80;21811;-61
2022/08/07 11:15:54;;;;;;;9.15;6.37;;;;;;;28.48;61.77;99747.55;1735651;80;21621;-60
2022/08/07 11:18:32;;;;;;;7.15;5.97;;;;;;;28.53;61.69;99743.84;1739226;80;21008;-61
2022/08/07 11:21:45;;;;;;;11.68;5.58;;;;;;;28.54;61.75;99745.02;1732332;79;21444;-61
2022/08/07 11:24:38;;;;;;;8.23;6.03;;;;;;;28.56;62.06;99753.44;1655719;84;21557;-61
2022/08/07 11:27:46;;;;;;;15.20;6.78;;;;;;;28.61;63.17;99757.30;1641796;84;21533;-61
2022/08/07 11:30:18;;;;;;;11.55;6.53;;;;;;;28.47;64.66;99781.88;1658636;84;21545;-62
2022/08/07 11:32:58;;;;;;;11.63;6.33;;;;;;;28.42;66.92;99787.48;1658222;84;21596;-62
2022/08/07 11:35:35;;;;;;;7.00;6.15;;;;;;;28.31;68.17;99782.82;1660385;84;21033;-62
2022/08/07 11:38:18;;;;;;;6.87;6.27;;;;;;;28.17;67.93;99779.50;1689253;82;21577;-61
2022/08/07 11:40:58;;;;;;;9.13;5.87;;;;;;;28.05;67.73;99770.09;1691766;82;21851;-62
2022/08/07 11:43:50;;;;;;;16.37;14.90;;;;;;;27.89;67.64;99775.91;1684314;84;21549;-61
2022/08/07 11:46:44;;;;;;;26.60;23.85;;;;;;;27.74;68.13;99781.15;1685384;82;21541;-61
2022/08/07 11:49:37;;;;;;;17.57;15.85;;;;;;;27.66;68.47;99786.59;1688900;82;21538;-60
2022/08/07 11:52:35;;;;;;;8.23;7.28;;;;;;;27.65;68.51;99786.75;1681934;82;21609;-61
2022/08/07 11:55:14;;;;;;;7.97;6.62;;;;;;;27.61;68.95;99790.82;1687923;82;21791;-62
2022/08/07 11:58:01;;;;;;;7.72;6.45;;;;;;;27.60;69.62;99802.66;1684854;83;21427;-61
2022/08/07 12:00:34;;;;;;;10.58;7.95;;;;;;;27.54;69.99;99802.32;1693121;82;21593;-61
2022/08/07 12:03:40;;;;;;;9.18;7.40;;;;;;;27.52;69.51;99800.78;1674263;82;21563;-62
2022/08/07 12:06:32;;;;;;;12.05;7.22;;;;;;;27.44;67.93;99789.50;1694038;82;21139;-61
2022/08/07 12:09:15;;;;;;;8.53;6.75;;;;;;;27.13;69.46;99786.13;1691018;82;21741;-60
2022/08/07 12:11:47;;;;;;;7.33;6.67;;;;;;;26.95;70.98;99789.50;1685529;82;21501;-61
2022/08/07 12:14:21;;;;;;;10.32;7.20;;;;;;;26.84;71.27;99777.18;1685924;82;21494;-61
2022/08/07 12:16:59;;;;;;;12.78;9.73;;;;;;;26.93;71.98;99778.04;1682056;84;21555;-61
2022/08/07 12:19:59;;;;;;;13.55;10.10;;;;;;;26.96;73.19;99782.59;1686775;82;21587;-62
2022/08/07 12:22:40;;;;;;;15.78;13.62;;;;;;;27.04;73.45;99791.19;1681544;84;21846;-62
2022/08/07 12:28:50;;;;;;;8.13;7.33;;;;;;;27.47;72.67;99776.18;1666673;83;21498;-62
2022/08/07 12:31:34;;;;;;;7.58;6.87;;;;;;;27.71;70.82;99762.61;1674216;83;21799;-61
2022/08/07 12:34:01;;;;;;;8.68;6.78;;;;;;;27.94;69.75;99745.16;1674670;83;21474;-62
2022/08/07 12:36:28;;;;;;;7.65;6.75;;;;;;;28.15;70.33;99745.89;1677196;83;21746;-62
2022/08/07 12:38:55;;;;;;;12.30;9.03;;;;;;;28.45;69.04;99742.52;1677374;83;21487;-61
2022/08/07 12:41:25;;;;;;;9.40;6.50;;;;;;;28.64;68.29;99734.47;1680233;83;21576;-61
2022/08/07 12:43:52;;;;;;;7.78;7.08;;;;;;;28.76;66.30;99734.87;1673805;83;21605;-62
2022/08/07 12:49:34;;;;;;;6.85;6.17;;;;;;;28.93;66.30;99748.10;1673392;84;21861;-62
2022/08/07 12:52:14;;;;;;;6.70;6.10;;;;;;;28.97;66.14;99758.05;1684020;84;21600;-61
2022/08/07 12:55:02;;;;;;;7.35;6.67;;;;;;;28.93;65.84;99756.22;1678843;84;21580;-61
2022/08/07 12:57:32;;;;;;;6.97;6.30;;;;;;;28.79;65.26;99758.36;1680488;84;21621;-63
2022/08/07 12:59:59;;;;;;;7.15;5.75;;;;;;;28.64;65.22;99746.64;1682235;83;21522;-63
2022/08/07 13:03:06;;;;;;;8.00;6.92;;;;;;;28.56;65.24;99757.50;1685580;83;21750;-62
2022/08/07 13:05:39;;;;;;;;;;;;;;;28.53;65.46;99753.30;1686190;84;21532;-62